Time;durP1;ratioP1;P1;durP2;ratioP2;P2;SDS_P1;SDS_P2;PMS_P1;PMS_P2;Temp;Humidity;BMP_temperature;BMP_pressure;BME280_temperature;BME280_humidity;BME280_pressure;Samples;Min_cycle;Max_cycle;Signal;HPM_P1;HPM_P2
2023/12/14 00:01:32;;;;;;;;;;;4.90;99.90;;;;;;5022277;28;19909;-79
2023/12/14 00:03:57;;;;;;;;;;;4.90;99.90;;;;;;5004951;28;20020;-78
2023/12/14 00:06:23;;;;;;;;;;;4.90;99.90;;;;;;5006199;28;20286;-79
2023/12/14 00:08:48;;;;;;;;;;;4.90;99.90;;;;;;5024255;28;19906;-79
2023/12/14 00:11:14;;;;;;;;;;;4.90;99.90;;;;;;5005751;28;19909;-77
2023/12/14 00:13:39;;;;;;;;;;;4.90;99.90;;;;;;5001257;28;19916;-78
2023/12/14 00:16:05;;;;;;;;;;;5.00;99.90;;;;;;5017042;28;20000;-78
2023/12/14 00:18:31;;;;;;;;;;;4.90;99.90;;;;;;5001975;28;20370;-78
2023/12/14 00:20:56;;;;;;;;;;;4.90;99.90;;;;;;5001814;28;19906;-78
2023/12/14 00:23:24;;;;;;;;;;;4.90;99.90;;;;;;5001126;28;19913;-77
2023/12/14 00:25:50;;;;;;;;;;;4.90;99.90;;;;;;5016608;28;19944;-77
2023/12/14 00:28:16;;;;;;;;;;;4.90;99.90;;;;;;5002356;28;19913;-77
2023/12/14 00:30:41;;;;;;;;;;;4.80;99.90;;;;;;5016957;28;19906;-77
2023/12/14 00:33:07;;;;;;;;;;;4.90;99.90;;;;;;5001561;28;19914;-77
2023/12/14 00:35:32;;;;;;;;;;;4.90;99.90;;;;;;4999903;28;20025;-78
2023/12/14 00:37:58;;;;;;;;;;;4.90;99.90;;;;;;5000884;28;19917;-76
2023/12/14 00:40:26;;;;;;;;;;;4.80;99.90;;;;;;4998942;28;19909;-76
2023/12/14 00:42:52;;;;;;;;;;;4.80;99.90;;;;;;5001354;28;19913;-78
2023/12/14 00:45:17;;;;;;;;;;;4.80;99.90;;;;;;5000872;28;19939;-78
2023/12/14 00:47:43;;;;;;;;;;;4.80;99.90;;;;;;5002637;28;19913;-78
2023/12/14 00:50:08;;;;;;;;;;;4.80;99.90;;;;;;5003256;28;20318;-78
2023/12/14 00:52:34;;;;;;;;;;;4.80;99.90;;;;;;5003158;28;19937;-77
2023/12/14 00:54:59;;;;;;;;;;;4.80;99.90;;;;;;5004225;28;19905;-79
2023/12/14 00:57:25;;;;;;;;;;;4.80;99.90;;;;;;5002834;28;20333;-78
2023/12/14 00:59:50;;;;;;;;;;;4.90;99.90;;;;;;5002759;28;19906;-78
2023/12/14 01:02:16;;;;;;;;;;;4.80;99.90;;;;;;5001265;28;19906;-78
2023/12/14 01:04:42;;;;;;;;;;;4.90;99.90;;;;;;5000903;28;19917;-77
2023/12/14 01:07:08;;;;;;;;;;;4.80;99.90;;;;;;5002767;28;20474;-78
2023/12/14 01:09:33;;;;;;;;;;;4.70;99.90;;;;;;5003263;28;19918;-78
2023/12/14 01:11:59;;;;;;;;;;;4.70;99.90;;;;;;5003441;28;19912;-78
2023/12/14 01:14:24;;;;;;;;;;;4.70;99.90;;;;;;5004094;28;20421;-78
2023/12/14 01:16:50;;;;;;;;;;;4.60;99.90;;;;;;5019187;28;19929;-78
2023/12/14 01:19:16;;;;;;;;;;;4.60;99.90;;;;;;5003958;28;20004;-78
2023/12/14 01:21:41;;;;;;;;;;;4.60;99.90;;;;;;5003420;28;19906;-78
2023/12/14 01:24:07;;;;;;;;;;;4.70;99.90;;;;;;5000526;28;19924;-77
2023/12/14 01:26:32;;;;;;;;;;;4.50;99.90;;;;;;5001309;28;19909;-77
2023/12/14 01:28:59;;;;;;;;;;;4.50;99.90;;;;;;5001895;28;19913;-79
2023/12/14 01:31:24;;;;;;;;;;;4.60;99.90;;;;;;5011592;28;19968;-79
2023/12/14 01:33:50;;;;;;;;;;;4.50;99.90;;;;;;5029820;28;19912;-78
2023/12/14 01:36:25;;;;;;;;;;;4.60;99.90;;;;;;5010333;28;19910;-78
2023/12/14 01:38:51;;;;;;;;;;;4.60;99.90;;;;;;5008918;28;19933;-78
2023/12/14 01:41:17;;;;;;;;;;;4.70;99.90;;;;;;5006282;28;19909;-78
2023/12/14 01:43:42;;;;;;;;;;;4.70;99.90;;;;;;5007897;28;19906;-78
2023/12/14 01:46:08;;;;;;;;;;;4.80;99.90;;;;;;5003837;28;19906;-77
2023/12/14 01:48:34;;;;;;;;;;;4.70;99.90;;;;;;4997787;28;19905;-78
2023/12/14 01:50:59;;;;;;;;;;;4.50;99.90;;;;;;5016942;28;19910;-78
2023/12/14 01:53:25;;;;;;;;;;;4.60;99.90;;;;;;5012937;28;19910;-77
2023/12/14 01:55:50;;;;;;;;;;;4.60;99.90;;;;;;4997314;28;19909;-78
2023/12/14 01:58:16;;;;;;;;;;;4.60;99.90;;;;;;5013486;28;19913;-78
2023/12/14 02:00:53;;;;;;;;;;;4.60;99.90;;;;;;4998533;28;19909;-78
2023/12/14 02:03:19;;;;;;;;;;;4.60;99.90;;;;;;5001395;28;19960;-79
2023/12/14 02:05:45;;;;;;;;;;;4.60;99.90;;;;;;5003652;28;19918;-79
2023/12/14 02:08:10;;;;;;;;;;;4.70;99.90;;;;;;5018800;28;19905;-79
2023/12/14 02:10:36;;;;;;;;;;;4.70;99.90;;;;;;5003663;28;19906;-78
2023/12/14 02:13:04;;;;;;;;;;;4.80;99.90;;;;;;5004000;28;19905;-78
2023/12/14 02:15:30;;;;;;;;;;;4.80;99.90;;;;;;5000967;28;20371;-79
2023/12/14 02:17:55;;;;;;;;;;;4.70;99.90;;;;;;5002814;28;19906;-79
2023/12/14 02:20:21;;;;;;;;;;;4.70;99.90;;;;;;5003244;28;19906;-79
2023/12/14 02:22:56;;;;;;;;;;;4.60;99.90;;;;;;4998870;28;19941;-78
2023/12/14 02:25:22;;;;;;;;;;;4.60;99.90;;;;;;5001368;28;19943;-78
2023/12/14 02:27:47;;;;;;;;;;;4.70;99.90;;;;;;5002524;28;19914;-77
2023/12/14 02:30:13;;;;;;;;;;;4.70;99.90;;;;;;4998227;28;19909;-78
2023/12/14 02:32:39;;;;;;;;;;;4.70;99.90;;;;;;5002182;28;20290;-79
2023/12/14 02:35:05;;;;;;;;;;;4.70;99.90;;;;;;5003340;28;19905;-79
2023/12/14 02:37:31;;;;;;;;;;;4.70;99.90;;;;;;5001090;28;19906;-78
2023/12/14 02:39:57;;;;;;;;;;;4.70;99.90;;;;;;5001659;28;19940;-79
2023/12/14 02:42:23;;;;;;;;;;;4.70;99.90;;;;;;5001529;28;19910;-79
2023/12/14 02:44:49;;;;;;;;;;;4.70;99.90;;;;;;5000790;28;19964;-78
2023/12/14 02:47:14;;;;;;;;;;;4.70;99.90;;;;;;4998563;28;19999;-79
2023/12/14 02:49:40;;;;;;;;;;;4.80;99.90;;;;;;5014786;28;20657;-78
2023/12/14 02:52:06;;;;;;;;;;;4.80;99.90;;;;;;4997688;28;19910;-77
2023/12/14 02:54:31;;;;;;;;;;;4.90;99.90;;;;;;4998389;28;19906;-79
2023/12/14 02:56:57;;;;;;;;;;;4.70;99.90;;;;;;4998377;28;19905;-79
2023/12/14 02:59:22;;;;;;;;;;;4.80;99.90;;;;;;4997965;28;19913;-78
2023/12/14 03:01:48;;;;;;;;;;;4.80;99.90;;;;;;4999382;28;19910;-79
2023/12/14 03:04:13;;;;;;;;;;;4.70;99.90;;;;;;4998976;28;19922;-78
2023/12/14 03:06:39;;;;;;;;;;;4.70;99.90;;;;;;4999583;28;19910;-79
2023/12/14 03:09:04;;;;;;;;;;;4.70;99.90;;;;;;5000105;28;19906;-79
2023/12/14 03:11:30;;;;;;;;;;;4.70;99.90;;;;;;4998198;28;19952;-78
2023/12/14 03:13:55;;;;;;;;;;;4.70;99.90;;;;;;4998241;28;20301;-78
2023/12/14 03:16:21;;;;;;;;;;;4.70;99.90;;;;;;4999402;28;19910;-78
2023/12/14 03:18:49;;;;;;;;;;;4.70;99.90;;;;;;5014718;28;19906;-79
2023/12/14 03:21:14;;;;;;;;;;;4.70;99.90;;;;;;4997751;28;19959;-77
2023/12/14 03:23:40;;;;;;;;;;;4.80;99.90;;;;;;4998191;28;19910;-78
2023/12/14 03:26:05;;;;;;;;;;;4.70;99.90;;;;;;4999113;28;19906;-79
2023/12/14 03:28:31;;;;;;;;;;;4.70;99.90;;;;;;4998610;28;20325;-77
2023/12/14 03:30:56;;;;;;;;;;;4.70;99.90;;;;;;4999136;28;19929;-79
2023/12/14 03:33:22;;;;;;;;;;;4.60;99.90;;;;;;5014871;28;19916;-78
2023/12/14 03:35:47;;;;;;;;;;;4.60;99.90;;;;;;5000453;28;19912;-78
2023/12/14 03:38:13;;;;;;;;;;;4.60;99.90;;;;;;4998866;28;19913;-78
2023/12/14 03:40:39;;;;;;;;;;;4.70;99.90;;;;;;5004009;28;19937;-78
2023/12/14 03:43:04;;;;;;;;;;;4.60;99.90;;;;;;5008973;28;19910;-78
2023/12/14 03:45:30;;;;;;;;;;;4.60;99.90;;;;;;4997920;28;19913;-78
2023/12/14 03:47:56;;;;;;;;;;;4.60;99.90;;;;;;4997528;28;19973;-78
2023/12/14 03:50:22;;;;;;;;;;;4.60;99.90;;;;;;4997647;28;19952;-78
2023/12/14 03:52:47;;;;;;;;;;;4.70;99.90;;;;;;4998331;28;20011;-78
2023/12/14 03:55:15;;;;;;;;;;;4.60;99.90;;;;;;4996931;28;19913;-78
2023/12/14 03:57:40;;;;;;;;;;;4.60;99.90;;;;;;5014111;28;19912;-78
2023/12/14 04:00:09;;;;;;;;;;;4.60;99.90;;;;;;4998201;28;19905;-78
2023/12/14 04:02:34;;;;;;;;;;;4.60;99.90;;;;;;4998975;28;19910;-78
2023/12/14 04:05:00;;;;;;;;;;;4.70;99.90;;;;;;4997849;28;19940;-78
2023/12/14 04:07:25;;;;;;;;;;;4.60;99.90;;;;;;4996453;28;19910;-79
2023/12/14 04:09:51;;;;;;;;;;;4.60;99.90;;;;;;4997330;28;19916;-78
2023/12/14 04:12:16;;;;;;;;;;;4.60;99.90;;;;;;4997440;28;19909;-77
2023/12/14 04:14:42;;;;;;;;;;;4.60;99.90;;;;;;4995760;28;19913;-78
2023/12/14 04:17:07;;;;;;;;;;;4.50;99.90;;;;;;4998727;28;19905;-78
2023/12/14 04:19:33;;;;;;;;;;;4.60;99.90;;;;;;4996616;28;20363;-79
2023/12/14 04:21:59;;;;;;;;;;;4.60;99.90;;;;;;4996806;28;19906;-78
2023/12/14 04:24:24;;;;;;;;;;;4.60;99.90;;;;;;4998112;28;19914;-78
2023/12/14 04:26:50;;;;;;;;;;;4.50;99.90;;;;;;4997758;28;19913;-78
2023/12/14 04:29:15;;;;;;;;;;;4.50;99.90;;;;;;4996932;28;20366;-78
2023/12/14 04:31:41;;;;;;;;;;;4.50;99.90;;;;;;4996137;28;20298;-78
2023/12/14 04:34:11;;;;;;;;;;;4.40;99.90;;;;;;4996495;28;19910;-78
2023/12/14 04:36:37;;;;;;;;;;;4.30;99.90;;;;;;4998663;28;19917;-78
2023/12/14 04:39:03;;;;;;;;;;;4.30;99.90;;;;;;5000607;28;19909;-77
2023/12/14 04:41:28;;;;;;;;;;;4.40;99.90;;;;;;4999410;28;19912;-78
2023/12/14 04:43:54;;;;;;;;;;;4.30;99.90;;;;;;5000450;28;19937;-78
2023/12/14 04:46:19;;;;;;;;;;;4.40;99.90;;;;;;4999451;28;19910;-77
2023/12/14 04:48:45;;;;;;;;;;;4.40;99.90;;;;;;5015935;28;19933;-77
2023/12/14 04:51:13;;;;;;;;;;;4.30;99.90;;;;;;4999491;28;19913;-78
2023/12/14 04:53:39;;;;;;;;;;;4.30;99.90;;;;;;5000076;28;20378;-79
2023/12/14 04:56:05;;;;;;;;;;;4.30;99.90;;;;;;4998966;28;19986;-78
2023/12/14 04:58:30;;;;;;;;;;;4.40;99.90;;;;;;5015609;28;19909;-79
2023/12/14 05:00:56;;;;;;;;;;;4.40;99.90;;;;;;5000952;28;19910;-78
2023/12/14 05:03:21;;;;;;;;;;;4.40;99.90;;;;;;4999814;28;19913;-77
2023/12/14 05:05:47;;;;;;;;;;;4.40;99.90;;;;;;4999748;28;19968;-78
2023/12/14 05:08:13;;;;;;;;;;;4.40;99.90;;;;;;5000285;28;19929;-78
2023/12/14 05:10:39;;;;;;;;;;;4.40;99.90;;;;;;4998993;28;19964;-78
2023/12/14 05:13:04;;;;;;;;;;;4.30;99.90;;;;;;4998671;28;19910;-77
2023/12/14 05:15:30;;;;;;;;;;;4.40;99.90;;;;;;4999426;28;20433;-78
2023/12/14 05:17:56;;;;;;;;;;;4.50;99.90;;;;;;4999769;28;20271;-79
2023/12/14 05:20:21;;;;;;;;;;;4.30;99.90;;;;;;4998047;28;20402;-78
2023/12/14 05:22:47;;;;;;;;;;;4.40;99.90;;;;;;4998502;28;19909;-78
2023/12/14 05:25:12;;;;;;;;;;;4.50;99.90;;;;;;4999252;28;19918;-77
2023/12/14 05:27:38;;;;;;;;;;;4.40;99.90;;;;;;4999484;28;19905;-78
2023/12/14 05:30:04;;;;;;;;;;;4.40;99.90;;;;;;4997986;28;19909;-78
2023/12/14 05:32:29;;;;;;;;;;;4.30;99.90;;;;;;4998947;28;20338;-78
2023/12/14 05:34:55;;;;;;;;;;;4.40;99.90;;;;;;4999218;28;19977;-78
2023/12/14 05:37:20;;;;;;;;;;;4.40;99.90;;;;;;4997389;28;19905;-78
2023/12/14 05:39:46;;;;;;;;;;;4.50;99.90;;;;;;4997881;28;19909;-78
2023/12/14 05:42:11;;;;;;;;;;;4.40;99.90;;;;;;4997717;28;19906;-78
2023/12/14 05:44:37;;;;;;;;;;;4.40;99.90;;;;;;4999655;28;19922;-77
2023/12/14 05:47:02;;;;;;;;;;;4.40;99.90;;;;;;5014547;28;19906;-78
2023/12/14 05:49:28;;;;;;;;;;;4.50;99.90;;;;;;4997434;28;19925;-77
2023/12/14 05:51:53;;;;;;;;;;;4.60;99.90;;;;;;5019242;28;20008;-79
2023/12/14 05:54:19;;;;;;;;;;;4.50;99.90;;;;;;5000193;28;19925;-77
2023/12/14 05:56:44;;;;;;;;;;;4.50;99.90;;;;;;4997937;28;20401;-78
2023/12/14 05:59:10;;;;;;;;;;;4.60;99.90;;;;;;4995300;28;19935;-77
2023/12/14 06:01:36;;;;;;;;;;;4.60;99.90;;;;;;5011367;28;19968;-79
2023/12/14 06:04:02;;;;;;;;;;;4.50;99.90;;;;;;4995743;28;20395;-77
2023/12/14 06:06:27;;;;;;;;;;;4.50;99.90;;;;;;4995029;28;20010;-78
2023/12/14 06:08:53;;;;;;;;;;;4.60;99.90;;;;;;4995755;28;19917;-77
2023/12/14 06:11:19;;;;;;;;;;;4.50;99.90;;;;;;4995970;28;19906;-78
2023/12/14 06:13:45;;;;;;;;;;;4.50;99.90;;;;;;4995822;28;19967;-78
2023/12/14 06:16:12;;;;;;;;;;;4.50;99.90;;;;;;4996119;28;20302;-78
2023/12/14 06:18:41;;;;;;;;;;;4.50;99.90;;;;;;4996189;28;19918;-77
2023/12/14 06:21:06;;;;;;;;;;;4.50;99.90;;;;;;4995974;28;20235;-78
2023/12/14 06:23:32;;;;;;;;;;;4.50;99.90;;;;;;4995820;28;20289;-79
2023/12/14 06:25:58;;;;;;;;;;;4.50;99.90;;;;;;4994583;28;20477;-78
2023/12/14 06:28:24;;;;;;;;;;;4.60;99.90;;;;;;4994850;28;19916;-77
2023/12/14 06:30:49;;;;;;;;;;;4.50;99.90;;;;;;4995059;28;20334;-78
2023/12/14 06:33:15;;;;;;;;;;;4.50;99.90;;;;;;4995400;28;20374;-77
2023/12/14 06:35:40;;;;;;;;;;;4.50;99.90;;;;;;4994924;28;19964;-78
2023/12/14 06:38:06;;;;;;;;;;;4.60;99.90;;;;;;4995449;28;19929;-77
2023/12/14 06:40:31;;;;;;;;;;;4.60;99.90;;;;;;4994187;28;19910;-77
2023/12/14 06:42:57;;;;;;;;;;;4.60;99.90;;;;;;4995849;28;19906;-77
2023/12/14 06:45:22;;;;;;;;;;;4.60;99.90;;;;;;4995066;28;19921;-77
2023/12/14 06:47:49;;;;;;;;;;;4.60;99.90;;;;;;4995553;28;19909;-78
2023/12/14 06:50:15;;;;;;;;;;;4.60;99.90;;;;;;4995663;28;19910;-78
2023/12/14 06:52:40;;;;;;;;;;;4.60;99.90;;;;;;4994332;28;19916;-77
2023/12/14 06:55:06;;;;;;;;;;;4.70;99.90;;;;;;4995912;28;19910;-77
2023/12/14 06:57:32;;;;;;;;;;;4.70;99.90;;;;;;4993955;28;20370;-77
2023/12/14 06:59:57;;;;;;;;;;;4.70;99.90;;;;;;4994255;28;19910;-77
2023/12/14 07:02:23;;;;;;;;;;;4.80;99.90;;;;;;4995613;28;19913;-78
2023/12/14 07:04:48;;;;;;;;;;;4.90;99.90;;;;;;4993437;28;20476;-78
2023/12/14 07:07:14;;;;;;;;;;;4.70;99.90;;;;;;4995143;28;19909;-77
2023/12/14 07:09:40;;;;;;;;;;;4.70;99.90;;;;;;4995297;28;19968;-77
2023/12/14 07:12:06;;;;;;;;;;;4.70;99.90;;;;;;4995115;28;20442;-77
2023/12/14 07:14:31;;;;;;;;;;;4.70;99.90;;;;;;4994027;28;19910;-77
2023/12/14 07:16:57;;;;;;;;;;;4.80;99.90;;;;;;4994943;28;19933;-77
2023/12/14 07:19:22;;;;;;;;;;;4.80;99.90;;;;;;4992972;28;19906;-77
2023/12/14 07:21:48;;;;;;;;;;;4.80;99.90;;;;;;4994732;28;19910;-78
2023/12/14 07:24:13;;;;;;;;;;;4.90;99.90;;;;;;5010030;28;19914;-77
2023/12/14 07:26:39;;;;;;;;;;;5.00;99.90;;;;;;4994330;28;19910;-78
2023/12/14 07:29:04;;;;;;;;;;;5.00;99.90;;;;;;4994348;28;19942;-77
2023/12/14 07:31:30;;;;;;;;;;;5.10;99.90;;;;;;4994698;28;20397;-78
2023/12/14 07:33:55;;;;;;;;;;;5.00;99.90;;;;;;4992632;28;19916;-78
2023/12/14 07:36:22;;;;;;;;;;;5.00;99.90;;;;;;4995347;28;19910;-78
2023/12/14 07:38:48;;;;;;;;;;;5.00;99.90;;;;;;4995112;28;19910;-77
2023/12/14 07:41:13;;;;;;;;;;;5.00;99.90;;;;;;4992676;28;20290;-77
2023/12/14 07:43:39;;;;;;;;;;;4.90;99.90;;;;;;5009221;28;19906;-78
2023/12/14 07:46:04;;;;;;;;;;;4.80;99.90;;;;;;4994153;28;19910;-77
2023/12/14 07:48:30;;;;;;;;;;;4.80;99.90;;;;;;4994988;28;19913;-77
2023/12/14 07:50:55;;;;;;;;;;;4.80;99.90;;;;;;4993001;28;19913;-78
2023/12/14 07:53:21;;;;;;;;;;;4.80;99.90;;;;;;4993317;28;19910;-78
2023/12/14 07:55:46;;;;;;;;;;;4.80;99.90;;;;;;5009762;28;19944;-77
2023/12/14 07:58:13;;;;;;;;;;;4.90;99.90;;;;;;4995343;28;19945;-78
2023/12/14 08:00:38;;;;;;;;;;;4.90;99.90;;;;;;5013769;28;20294;-79
2023/12/14 08:03:04;;;;;;;;;;;4.90;99.90;;;;;;5009168;28;19914;-78
2023/12/14 08:05:29;;;;;;;;;;;4.90;99.90;;;;;;5008054;28;19928;-78
2023/12/14 08:07:55;;;;;;;;;;;4.90;99.90;;;;;;4991587;28;19952;-77
2023/12/14 08:10:20;;;;;;;;;;;4.90;99.90;;;;;;4995646;28;19929;-78
2023/12/14 08:12:47;;;;;;;;;;;4.90;99.90;;;;;;4996736;28;20008;-76
2023/12/14 08:15:13;;;;;;;;;;;4.90;99.90;;;;;;4996321;28;20003;-76
2023/12/14 08:17:38;;;;;;;;;;;4.90;99.90;;;;;;4995416;28;20517;-77
2023/12/14 08:20:08;;;;;;;;;;;5.00;99.90;;;;;;4996590;28;20393;-77
2023/12/14 08:22:34;;;;;;;;;;;5.00;99.90;;;;;;4996788;28;19921;-78
2023/12/14 08:25:00;;;;;;;;;;;5.00;99.90;;;;;;5011569;28;19914;-78
2023/12/14 08:27:25;;;;;;;;;;;5.00;99.90;;;;;;5011390;28;19911;-77
2023/12/14 08:29:51;;;;;;;;;;;5.10;99.90;;;;;;4996389;28;20330;-78
2023/12/14 08:32:16;;;;;;;;;;;5.10;99.90;;;;;;4996983;28;19913;-78
2023/12/14 08:34:42;;;;;;;;;;;5.10;99.90;;;;;;4996639;28;20350;-77
2023/12/14 08:37:07;;;;;;;;;;;5.10;99.90;;;;;;4995964;28;20405;-77
2023/12/14 08:39:33;;;;;;;;;;;5.20;99.90;;;;;;4996543;28;19910;-77
2023/12/14 08:41:58;;;;;;;;;;;5.30;99.90;;;;;;4995444;28;19956;-78
2023/12/14 08:44:24;;;;;;;;;;;5.20;99.90;;;;;;4996528;28;19909;-78
2023/12/14 08:46:49;;;;;;;;;;;5.30;99.90;;;;;;4995127;28;19917;-77
2023/12/14 08:49:15;;;;;;;;;;;5.30;99.90;;;;;;4996469;28;19906;-77
2023/12/14 08:51:41;;;;;;;;;;;5.30;99.90;;;;;;4995062;28;20371;-77
2023/12/14 08:54:07;;;;;;;;;;;5.30;99.90;;;;;;4996336;28;19929;-77
2023/12/14 08:56:33;;;;;;;;;;;5.30;99.90;;;;;;4996179;28;19906;-77
2023/12/14 08:58:59;;;;;;;;;;;5.40;99.90;;;;;;4995450;28;19906;-77
2023/12/14 09:01:24;;;;;;;;;;;5.30;99.90;;;;;;4996183;28;20001;-77
2023/12/14 09:03:50;;;;;;;;;;;5.40;99.90;;;;;;4994587;28;19989;-77
2023/12/14 09:06:16;;;;;;;;;;;5.40;99.90;;;;;;4996312;28;20370;-77
2023/12/14 09:08:42;;;;;;;;;;;5.40;99.90;;;;;;4996613;28;19910;-77
2023/12/14 09:11:07;;;;;;;;;;;5.50;99.90;;;;;;5011483;28;19913;-78
2023/12/14 09:13:33;;;;;;;;;;;5.60;99.90;;;;;;4996427;28;19909;-77
2023/12/14 09:15:58;;;;;;;;;;;5.60;99.90;;;;;;4996593;28;20401;-78
2023/12/14 09:18:24;;;;;;;;;;;5.60;99.90;;;;;;4995190;28;19910;-78
2023/12/14 09:20:49;;;;;;;;;;;5.70;99.90;;;;;;4995746;28;19987;-78
2023/12/14 09:23:15;;;;;;;;;;;5.80;99.90;;;;;;4996313;28;19905;-77
2023/12/14 09:25:41;;;;;;;;;;;5.80;99.90;;;;;;5010970;28;20015;-77
2023/12/14 09:28:07;;;;;;;;;;;5.80;99.90;;;;;;4995041;28;19945;-77
2023/12/14 09:30:32;;;;;;;;;;;5.80;99.90;;;;;;4996621;28;19953;-77
2023/12/14 09:32:58;;;;;;;;;;;5.80;99.90;;;;;;4996997;28;19953;-77
2023/12/14 09:35:23;;;;;;;;;;;5.80;99.90;;;;;;4995494;28;19909;-77
2023/12/14 09:37:49;;;;;;;;;;;5.80;99.90;;;;;;4996748;28;19929;-76
2023/12/14 09:40:16;;;;;;;;;;;5.80;99.90;;;;;;4996908;28;19929;-76
2023/12/14 09:42:42;;;;;;;;;;;5.80;99.90;;;;;;4996775;28;19977;-78
2023/12/14 09:45:09;;;;;;;;;;;5.80;99.90;;;;;;4996469;28;20020;-77
2023/12/14 09:47:35;;;;;;;;;;;5.80;99.90;;;;;;4995298;28;19909;-77
2023/12/14 09:50:00;;;;;;;;;;;5.80;99.90;;;;;;4995631;28;20013;-77
2023/12/14 09:52:26;;;;;;;;;;;5.90;99.90;;;;;;4995922;28;19905;-77
2023/12/14 09:54:51;;;;;;;;;;;5.90;99.90;;;;;;4995422;28;19921;-78
2023/12/14 09:57:21;;;;;;;;;;;5.90;99.90;;;;;;5011360;28;19906;-78
2023/12/14 09:59:53;;;;;;;;;;;5.90;99.90;;;;;;4995382;28;19909;-77
2023/12/14 10:02:18;;;;;;;;;;;5.90;99.90;;;;;;4995172;28;20378;-76
2023/12/14 10:04:44;;;;;;;;;;;5.90;99.90;;;;;;4994985;28;19928;-77
2023/12/14 10:07:09;;;;;;;;;;;5.90;99.90;;;;;;4997028;28;19936;-79
2023/12/14 10:09:37;;;;;;;;;;;5.90;99.90;;;;;;5000312;28;19977;-80
2023/12/14 10:12:06;;;;;;;;;;;5.80;99.90;;;;;;4997251;28;19910;-77
2023/12/14 10:14:32;;;;;;;;;;;5.90;99.90;;;;;;4994273;28;19905;-77
2023/12/14 10:16:58;;;;;;;;;;;5.90;99.90;;;;;;4994048;28;20380;-78
2023/12/14 10:19:23;;;;;;;;;;;6.00;99.90;;;;;;4994087;28;19967;-77
2023/12/14 10:21:49;;;;;;;;;;;6.00;99.90;;;;;;4996446;28;20004;-77
2023/12/14 10:24:15;;;;;;;;;;;6.00;99.90;;;;;;4993725;28;20398;-77
2023/12/14 10:26:41;;;;;;;;;;;6.00;99.90;;;;;;4995085;28;19905;-77
2023/12/14 10:29:06;;;;;;;;;;;6.10;99.90;;;;;;4994742;28;19916;-78
2023/12/14 10:31:37;;;;;;;;;;;6.10;99.90;;;;;;4994833;28;19910;-78
2023/12/14 10:34:05;;;;;;;;;;;6.10;99.90;;;;;;4995501;28;20004;-78
2023/12/14 10:36:31;;;;;;;;;;;6.20;99.90;;;;;;4993702;28;19910;-78
2023/12/14 10:38:58;;;;;;;;;;;6.20;99.90;;;;;;4993742;28;20367;-78
2023/12/14 10:41:24;;;;;;;;;;;6.30;99.90;;;;;;4994417;28;19988;-78
2023/12/14 10:43:50;;;;;;;;;;;6.30;99.90;;;;;;4993682;28;19941;-77
2023/12/14 10:46:16;;;;;;;;;;;6.40;99.90;;;;;;4995324;28;20032;-78
2023/12/14 10:48:43;;;;;;;;;;;6.30;99.90;;;;;;4994592;28;19956;-77
2023/12/14 10:51:11;;;;;;;;;;;6.40;99.90;;;;;;4993954;28;19909;-78
2023/12/14 10:53:37;;;;;;;;;;;6.40;99.90;;;;;;4994842;28;19912;-77
2023/12/14 10:56:06;;;;;;;;;;;6.40;99.90;;;;;;4994966;28;20293;-78
2023/12/14 10:59:04;;;;;;;;;;;6.40;99.90;;;;;;4993587;28;19912;-78
2023/12/14 11:01:32;;;;;;;;;;;6.50;99.90;;;;;;4972056;28;19984;-78
2023/12/14 11:03:59;;;;;;;;;;;6.40;99.90;;;;;;4994772;28;19918;-77
2023/12/14 11:06:24;;;;;;;;;;;6.50;99.90;;;;;;4993549;28;19917;-78
2023/12/14 11:08:54;;;;;;;;;;;6.50;99.90;;;;;;4993487;28;19916;-78
2023/12/14 11:11:20;;;;;;;;;;;6.50;99.90;;;;;;4995386;28;19914;-78
2023/12/14 11:13:49;;;;;;;;;;;6.60;99.90;;;;;;4993564;28;19972;-78
2023/12/14 11:16:15;;;;;;;;;;;6.60;99.90;;;;;;4994713;28;19907;-78
2023/12/14 11:18:40;;;;;;;;;;;6.60;99.90;;;;;;4994040;28;19933;-78
2023/12/14 11:21:06;;;;;;;;;;;6.70;99.90;;;;;;4995671;28;19913;-77
2023/12/14 11:23:33;;;;;;;;;;;6.70;99.90;;;;;;4993490;28;19910;-77
2023/12/14 11:26:06;;;;;;;;;;;6.80;99.90;;;;;;4995199;28;20389;-78
2023/12/14 11:28:43;;;;;;;;;;;6.90;99.90;;;;;;4993679;28;20397;-78
2023/12/14 11:31:10;;;;;;;;;;;6.90;99.90;;;;;;4993051;28;19909;-78
2023/12/14 11:33:35;;;;;;;;;;;7.00;99.90;;;;;;4993309;28;19973;-78
2023/12/14 11:36:03;;;;;;;;;;;7.00;99.90;;;;;;4995499;28;19953;-77
2023/12/14 11:38:28;;;;;;;;;;;7.10;99.90;;;;;;5010493;28;19933;-77
2023/12/14 11:40:54;;;;;;;;;;;7.10;99.90;;;;;;4993457;28;20370;-78
2023/12/14 11:43:24;;;;;;;;;;;7.10;99.90;;;;;;4993728;28;19929;-77
2023/12/14 11:45:50;;;;;;;;;;;7.10;99.90;;;;;;4995451;28;19964;-77
2023/12/14 11:48:16;;;;;;;;;;;7.10;99.90;;;;;;4995734;28;19914;-77
2023/12/14 11:50:42;;;;;;;;;;;7.10;99.90;;;;;;4994158;28;20346;-77
2023/12/14 11:53:08;;;;;;;;;;;7.10;99.90;;;;;;5010075;28;19906;-78
2023/12/14 11:55:34;;;;;;;;;;;7.00;99.90;;;;;;4994900;28;19906;-77
2023/12/14 11:58:00;;;;;;;;;;;7.10;99.90;;;;;;4994519;28;20314;-77
2023/12/14 12:00:26;;;;;;;;;;;7.10;99.90;;;;;;4995427;28;19906;-78
2023/12/14 12:03:06;;;;;;;;;;;7.10;99.90;;;;;;4995480;28;19925;-79
2023/12/14 12:05:35;;;;;;;;;;;7.10;99.90;;;;;;4994971;28;19917;-77
2023/12/14 12:08:01;;;;;;;;;;;7.10;99.90;;;;;;5010950;28;19905;-78
2023/12/14 12:10:26;;;;;;;;;;;7.10;99.90;;;;;;4995462;28;20293;-77
2023/12/14 12:12:58;;;;;;;;;;;7.10;99.90;;;;;;5011105;28;19980;-77
2023/12/14 12:15:24;;;;;;;;;;;7.10;99.90;;;;;;4996076;28;19941;-78
2023/12/14 12:17:49;;;;;;;;;;;7.10;99.90;;;;;;5000617;28;19906;-78
2023/12/14 12:20:15;;;;;;;;;;;7.00;99.90;;;;;;4996080;28;19910;-78
2023/12/14 12:22:40;;;;;;;;;;;7.10;99.90;;;;;;4993568;28;19906;-78
2023/12/14 12:25:06;;;;;;;;;;;7.10;99.90;;;;;;4993543;28;20301;-77
2023/12/14 12:27:31;;;;;;;;;;;7.10;99.90;;;;;;4992683;28;19944;-78
2023/12/14 12:29:57;;;;;;;;;;;7.20;99.90;;;;;;4992836;28;20326;-78
2023/12/14 12:32:23;;;;;;;;;;;7.10;99.90;;;;;;4994566;28;19944;-78
2023/12/14 12:34:48;;;;;;;;;;;7.20;99.90;;;;;;4994060;28;19910;-78
2023/12/14 12:37:14;;;;;;;;;;;7.20;99.90;;;;;;4994947;28;19916;-78
2023/12/14 12:39:39;;;;;;;;;;;7.20;99.90;;;;;;4994152;28;19910;-78
2023/12/14 12:42:05;;;;;;;;;;;7.10;99.90;;;;;;4994216;28;20267;-78
2023/12/14 12:44:30;;;;;;;;;;;7.20;99.90;;;;;;4994366;28;20298;-78
2023/12/14 12:46:57;;;;;;;;;;;7.20;99.90;;;;;;4994646;28;19905;-78
2023/12/14 12:49:22;;;;;;;;;;;7.30;99.90;;;;;;4994152;28;19909;-77
2023/12/14 12:51:48;;;;;;;;;;;7.30;99.90;;;;;;4993866;28;19909;-78
2023/12/14 12:54:13;;;;;;;;;;;7.40;99.90;;;;;;4994836;28;19906;-77
2023/12/14 12:56:39;;;;;;;;;;;7.50;99.90;;;;;;4995924;28;20338;-78
2023/12/14 12:59:05;;;;;;;;;;;7.50;99.90;;;;;;4998803;28;19948;-78
2023/12/14 13:01:30;;;;;;;;;;;7.40;99.90;;;;;;4997851;28;19909;-77
2023/12/14 13:03:57;;;;;;;;;;;7.40;99.90;;;;;;4997786;28;19913;-77
2023/12/14 13:06:25;;;;;;;;;;;7.60;99.90;;;;;;5012863;28;19910;-78
2023/12/14 13:08:51;;;;;;;;;;;7.50;99.90;;;;;;5013482;28;20457;-77
2023/12/14 13:11:17;;;;;;;;;;;7.60;99.90;;;;;;4998464;28;19956;-78
2023/12/14 13:13:43;;;;;;;;;;;7.70;99.90;;;;;;4998579;28;20401;-78
2023/12/14 13:16:10;;;;;;;;;;;7.60;99.90;;;;;;4997832;28;19909;-78
2023/12/14 13:18:35;;;;;;;;;;;7.30;99.90;;;;;;4997588;28;19906;-78
2023/12/14 13:21:01;;;;;;;;;;;7.40;99.90;;;;;;4998341;28;19910;-77
2023/12/14 13:23:26;;;;;;;;;;;7.50;99.90;;;;;;5012796;28;19977;-78
2023/12/14 13:25:52;;;;;;;;;;;7.40;99.90;;;;;;4996216;28;19917;-77
2023/12/14 13:28:17;;;;;;;;;;;7.50;99.90;;;;;;4996327;28;19941;-78
2023/12/14 13:30:43;;;;;;;;;;;7.40;99.90;;;;;;4997610;28;20001;-78
2023/12/14 13:33:11;;;;;;;;;;;7.40;99.90;;;;;;5013096;28;19914;-77
2023/12/14 13:35:37;;;;;;;;;;;7.40;99.90;;;;;;4997893;28;20420;-77
2023/12/14 13:38:02;;;;;;;;;;;7.50;99.90;;;;;;4997761;28;19910;-78
2023/12/14 13:40:28;;;;;;;;;;;7.40;99.90;;;;;;4996186;28;19948;-78
2023/12/14 13:42:53;;;;;;;;;;;7.40;99.90;;;;;;4997639;28;19920;-78
2023/12/14 13:45:19;;;;;;;;;;;7.50;99.90;;;;;;4997594;28;20075;-78
2023/12/14 13:47:44;;;;;;;;;;;7.30;99.90;;;;;;4998289;28;19917;-79
2023/12/14 13:50:10;;;;;;;;;;;7.30;99.90;;;;;;4996424;28;19910;-78
2023/12/14 13:52:35;;;;;;;;;;;7.20;99.90;;;;;;4998542;28;19910;-78
2023/12/14 13:55:01;;;;;;;;;;;7.10;99.90;;;;;;4998524;28;19910;-77
2023/12/14 13:57:27;;;;;;;;;;;7.10;99.90;;;;;;4997819;28;19905;-79
2023/12/14 13:59:52;;;;;;;;;;;7.00;99.90;;;;;;4997030;28;19996;-78
2023/12/14 14:02:18;;;;;;;;;;;7.00;99.90;;;;;;4997989;28;19906;-78
2023/12/14 14:04:44;;;;;;;;;;;7.00;99.90;;;;;;4997968;28;19980;-78
2023/12/14 14:07:09;;;;;;;;;;;7.00;99.90;;;;;;4997324;28;19912;-78
2023/12/14 14:09:35;;;;;;;;;;;7.00;99.90;;;;;;4997841;28;19913;-78
2023/12/14 14:12:00;;;;;;;;;;;7.00;99.90;;;;;;4997995;28;19996;-78
2023/12/14 14:14:26;;;;;;;;;;;7.00;99.90;;;;;;4998343;28;19906;-77
2023/12/14 14:16:51;;;;;;;;;;;7.00;99.90;;;;;;4998062;28;19913;-78
2023/12/14 14:19:17;;;;;;;;;;;6.90;99.90;;;;;;5013166;28;19909;-77
2023/12/14 14:21:43;;;;;;;;;;;6.90;99.90;;;;;;4996830;28;20433;-78
2023/12/14 14:24:08;;;;;;;;;;;6.90;99.90;;;;;;5001881;28;19925;-79